sensor_id;sensor_type;location;lat;lon;timestamp;temperature;humidity
23783;DHT22;12071;50.850;4.446;2023-11-19T00:00:25;14.00;45.20
23783;DHT22;12071;50.850;4.446;2023-11-19T00:02:51;14.10;45.30
23783;DHT22;12071;50.850;4.446;2023-11-19T00:05:17;14.20;42.70
23783;DHT22;12071;50.850;4.446;2023-11-19T00:07:43;14.10;39.90
23783;DHT22;12071;50.850;4.446;2023-11-19T00:10:09;14.10;38.20
23783;DHT22;12071;50.850;4.446;2023-11-19T00:12:37;14.10;36.50
23783;DHT22;12071;50.850;4.446;2023-11-19T00:15:03;14.10;37.30
23783;DHT22;12071;50.850;4.446;2023-11-19T00:17:29;14.00;37.50
23783;DHT22;12071;50.850;4.446;2023-11-19T00:19:54;14.10;37.10
23783;DHT22;12071;50.850;4.446;2023-11-19T00:22:20;14.10;35.80
23783;DHT22;12071;50.850;4.446;2023-11-19T00:24:47;14.10;34.60
23783;DHT22;12071;50.850;4.446;2023-11-19T00:27:13;14.10;35.10
23783;DHT22;12071;50.850;4.446;2023-11-19T00:29:38;14.30;31.10
23783;DHT22;12071;50.850;4.446;2023-11-19T00:32:04;14.10;29.10
23783;DHT22;12071;50.850;4.446;2023-11-19T00:34:31;14.10;29.20
23783;DHT22;12071;50.850;4.446;2023-11-19T00:36:56;14.10;29.90
23783;DHT22;12071;50.850;4.446;2023-11-19T00:39:22;14.10;30.60
23783;DHT22;12071;50.850;4.446;2023-11-19T00:41:48;14.00;30.50
23783;DHT22;12071;50.850;4.446;2023-11-19T00:44:14;14.00;32.00
23783;DHT22;12071;50.850;4.446;2023-11-19T00:46:39;14.10;30.30
23783;DHT22;12071;50.850;4.446;2023-11-19T00:49:05;14.10;28.80
23783;DHT22;12071;50.850;4.446;2023-11-19T00:51:31;14.10;25.80
23783;DHT22;12071;50.850;4.446;2023-11-19T00:53:59;14.10;23.00
23783;DHT22;12071;50.850;4.446;2023-11-19T00:56:27;14.00;24.00
23783;DHT22;12071;50.850;4.446;2023-11-19T00:58:55;14.00;24.00
23783;DHT22;12071;50.850;4.446;2023-11-19T01:01:21;14.00;23.70
23783;DHT22;12071;50.850;4.446;2023-11-19T01:03:47;14.00;26.00
23783;DHT22;12071;50.850;4.446;2023-11-19T01:06:13;14.10;25.80
23783;DHT22;12071;50.850;4.446;2023-11-19T01:08:39;14.20;22.10
23783;DHT22;12071;50.850;4.446;2023-11-19T01:11:05;14.10;19.90
23783;DHT22;12071;50.850;4.446;2023-11-19T01:13:30;14.10;17.70
23783;DHT22;12071;50.850;4.446;2023-11-19T01:15:56;14.10;18.40
23783;DHT22;12071;50.850;4.446;2023-11-19T01:18:22;14.10;16.70
23783;DHT22;12071;50.850;4.446;2023-11-19T01:20:47;14.10;16.80
23783;DHT22;12071;50.850;4.446;2023-11-19T01:23:13;14.10;18.30
23783;DHT22;12071;50.850;4.446;2023-11-19T01:25:39;14.20;15.70
23783;DHT22;12071;50.850;4.446;2023-11-19T01:28:04;14.20;14.00
23783;DHT22;12071;50.850;4.446;2023-11-19T01:30:30;14.30;9.20
23783;DHT22;12071;50.850;4.446;2023-11-19T01:32:56;14.40;4.60
23783;DHT22;12071;50.850;4.446;2023-11-19T01:35:21;14.30;2.50
23783;DHT22;12071;50.850;4.446;2023-11-19T01:37:48;14.30;1.00
23783;DHT22;12071;50.850;4.446;2023-11-19T01:40:14;14.30;1.80
23783;DHT22;12071;50.850;4.446;2023-11-19T01:42:41;14.20;4.70
23783;DHT22;12071;50.850;4.446;2023-11-19T01:45:07;14.20;4.70
23783;DHT22;12071;50.850;4.446;2023-11-19T01:47:34;14.10;2.70
23783;DHT22;12071;50.850;4.446;2023-11-19T01:50:01;14.10;1.40
23783;DHT22;12071;50.850;4.446;2023-11-19T01:52:33;14.00;1.00
23783;DHT22;12071;50.850;4.446;2023-11-19T01:54:59;14.00;1.00
23783;DHT22;12071;50.850;4.446;2023-11-19T01:57:25;13.90;1.00
23783;DHT22;12071;50.850;4.446;2023-11-19T01:59:52;13.90;1.00
23783;DHT22;12071;50.850;4.446;2023-11-19T02:02:18;13.80;1.00
23783;DHT22;12071;50.850;4.446;2023-11-19T02:04:47;13.80;1.00
23783;DHT22;12071;50.850;4.446;2023-11-19T02:07:14;13.90;1.00
23783;DHT22;12071;50.850;4.446;2023-11-19T02:09:42;13.90;1.00
23783;DHT22;12071;50.850;4.446;2023-11-19T02:12:09;13.90;1.00
23783;DHT22;12071;50.850;4.446;2023-11-19T02:14:35;13.90;1.00
23783;DHT22;12071;50.850;4.446;2023-11-19T02:17:01;13.90;1.00
23783;DHT22;12071;50.850;4.446;2023-11-19T02:19:27;13.80;1.00
23783;DHT22;12071;50.850;4.446;2023-11-19T02:21:53;13.90;1.00
23783;DHT22;12071;50.850;4.446;2023-11-19T02:24:22;13.90;1.00
23783;DHT22;12071;50.850;4.446;2023-11-19T02:27:02;13.80;1.00
23783;DHT22;12071;50.850;4.446;2023-11-19T02:29:28;13.90;1.00
23783;DHT22;12071;50.850;4.446;2023-11-19T02:31:53;13.90;1.00
23783;DHT22;12071;50.850;4.446;2023-11-19T02:34:20;13.90;1.00
23783;DHT22;12071;50.850;4.446;2023-11-19T02:36:47;13.80;1.00
23783;DHT22;12071;50.850;4.446;2023-11-19T02:39:13;13.80;1.00
23783;DHT22;12071;50.850;4.446;2023-11-19T02:41:39;13.80;1.00
23783;DHT22;12071;50.850;4.446;2023-11-19T02:44:07;13.80;1.00
23783;DHT22;12071;50.850;4.446;2023-11-19T02:46:33;13.70;1.00
23783;DHT22;12071;50.850;4.446;2023-11-19T02:48:59;13.70;1.00
23783;DHT22;12071;50.850;4.446;2023-11-19T02:51:24;13.70;1.00
23783;DHT22;12071;50.850;4.446;2023-11-19T02:53:50;13.80;1.00
23783;DHT22;12071;50.850;4.446;2023-11-19T02:56:15;13.80;1.00
23783;DHT22;12071;50.850;4.446;2023-11-19T02:58:45;13.80;1.00
23783;DHT22;12071;50.850;4.446;2023-11-19T03:01:12;13.80;1.00
23783;DHT22;12071;50.850;4.446;2023-11-19T03:03:48;13.60;1.00
23783;DHT22;12071;50.850;4.446;2023-11-19T03:06:19;13.70;1.00
23783;DHT22;12071;50.850;4.446;2023-11-19T03:08:45;13.70;1.00
23783;DHT22;12071;50.850;4.446;2023-11-19T03:11:10;13.70;1.00
23783;DHT22;12071;50.850;4.446;2023-11-19T03:13:36;13.60;1.00
23783;DHT22;12071;50.850;4.446;2023-11-19T03:16:01;13.50;1.00
23783;DHT22;12071;50.850;4.446;2023-11-19T03:18:27;13.50;1.00
23783;DHT22;12071;50.850;4.446;2023-11-19T03:20:54;13.50;1.00
23783;DHT22;12071;50.850;4.446;2023-11-19T03:23:19;13.50;1.00
23783;DHT22;12071;50.850;4.446;2023-11-19T03:25:45;13.40;1.00
23783;DHT22;12071;50.850;4.446;2023-11-19T03:28:10;13.40;1.00
23783;DHT22;12071;50.850;4.446;2023-11-19T03:30:36;13.30;1.00
23783;DHT22;12071;50.850;4.446;2023-11-19T03:33:02;13.30;1.00
23783;DHT22;12071;50.850;4.446;2023-11-19T03:35:28;13.30;1.00
23783;DHT22;12071;50.850;4.446;2023-11-19T03:37:54;13.30;1.00
23783;DHT22;12071;50.850;4.446;2023-11-19T03:40:20;13.20;1.00
23783;DHT22;12071;50.850;4.446;2023-11-19T03:42:46;13.20;1.00
23783;DHT22;12071;50.850;4.446;2023-11-19T03:45:12;13.10;1.00
23783;DHT22;12071;50.850;4.446;2023-11-19T03:47:38;13.00;1.00
23783;DHT22;12071;50.850;4.446;2023-11-19T03:50:06;13.00;1.00
23783;DHT22;12071;50.850;4.446;2023-11-19T03:52:33;13.00;1.00
23783;DHT22;12071;50.850;4.446;2023-11-19T03:54:59;12.90;1.00
23783;DHT22;12071;50.850;4.446;2023-11-19T03:57:24;12.90;1.00
23783;DHT22;12071;50.850;4.446;2023-11-19T03:59:50;13.00;1.00
23783;DHT22;12071;50.850;4.446;2023-11-19T04:02:16;13.00;1.00
23783;DHT22;12071;50.850;4.446;2023-11-19T04:04:42;13.00;1.00
23783;DHT22;12071;50.850;4.446;2023-11-19T04:07:08;12.90;1.00
23783;DHT22;12071;50.850;4.446;2023-11-19T04:09:35;13.00;1.00
23783;DHT22;12071;50.850;4.446;2023-11-19T04:12:04;12.90;1.00
23783;DHT22;12071;50.850;4.446;2023-11-19T04:14:29;13.00;1.00
23783;DHT22;12071;50.850;4.446;2023-11-19T04:16:55;13.00;1.00
23783;DHT22;12071;50.850;4.446;2023-11-19T04:19:21;12.90;1.00
23783;DHT22;12071;50.850;4.446;2023-11-19T04:21:47;13.00;1.00
23783;DHT22;12071;50.850;4.446;2023-11-19T04:24:13;13.00;1.00
23783;DHT22;12071;50.850;4.446;2023-11-19T04:26:43;13.00;1.00
23783;DHT22;12071;50.850;4.446;2023-11-19T04:29:11;13.00;1.00
23783;DHT22;12071;50.850;4.446;2023-11-19T04:31:37;13.00;1.00
23783;DHT22;12071;50.850;4.446;2023-11-19T04:34:03;13.00;1.00
23783;DHT22;12071;50.850;4.446;2023-11-19T04:36:29;13.00;1.00
23783;DHT22;12071;50.850;4.446;2023-11-19T04:38:55;13.00;1.00
23783;DHT22;12071;50.850;4.446;2023-11-19T04:41:21;13.00;1.00
23783;DHT22;12071;50.850;4.446;2023-11-19T04:43:47;12.90;1.00
23783;DHT22;12071;50.850;4.446;2023-11-19T04:46:13;12.90;1.00
23783;DHT22;12071;50.850;4.446;2023-11-19T04:48:38;12.90;1.00
23783;DHT22;12071;50.850;4.446;2023-11-19T04:51:07;12.80;1.00
23783;DHT22;12071;50.850;4.446;2023-11-19T04:53:35;12.90;1.00
23783;DHT22;12071;50.850;4.446;2023-11-19T04:56:00;12.80;1.00
23783;DHT22;12071;50.850;4.446;2023-11-19T04:58:28;12.80;1.00
23783;DHT22;12071;50.850;4.446;2023-11-19T05:00:54;12.90;1.00
23783;DHT22;12071;50.850;4.446;2023-11-19T05:03:19;13.00;1.00
23783;DHT22;12071;50.850;4.446;2023-11-19T05:05:45;12.90;1.00
23783;DHT22;12071;50.850;4.446;2023-11-19T05:08:11;12.90;1.00
23783;DHT22;12071;50.850;4.446;2023-11-19T05:10:37;13.10;1.00
23783;DHT22;12071;50.850;4.446;2023-11-19T05:13:02;12.90;1.00
23783;DHT22;12071;50.850;4.446;2023-11-19T05:15:28;12.90;1.00
23783;DHT22;12071;50.850;4.446;2023-11-19T05:17:53;12.90;1.00
23783;DHT22;12071;50.850;4.446;2023-11-19T05:20:19;12.80;1.00
23783;DHT22;12071;50.850;4.446;2023-11-19T05:22:45;12.70;1.00
23783;DHT22;12071;50.850;4.446;2023-11-19T05:25:11;12.70;1.00
23783;DHT22;12071;50.850;4.446;2023-11-19T05:27:37;12.60;1.00
23783;DHT22;12071;50.850;4.446;2023-11-19T05:30:04;12.60;1.00
23783;DHT22;12071;50.850;4.446;2023-11-19T05:32:33;12.60;1.00
23783;DHT22;12071;50.850;4.446;2023-11-19T05:34:58;12.70;1.00
23783;DHT22;12071;50.850;4.446;2023-11-19T05:37:25;12.60;1.00
23783;DHT22;12071;50.850;4.446;2023-11-19T05:39:50;12.70;1.00
23783;DHT22;12071;50.850;4.446;2023-11-19T05:42:16;12.70;1.00
23783;DHT22;12071;50.850;4.446;2023-11-19T05:44:42;12.70;1.00
23783;DHT22;12071;50.850;4.446;2023-11-19T05:47:08;12.80;1.00
23783;DHT22;12071;50.850;4.446;2023-11-19T05:49:33;12.70;1.00
23783;DHT22;12071;50.850;4.446;2023-11-19T05:51:59;12.70;1.00
23783;DHT22;12071;50.850;4.446;2023-11-19T05:54:24;12.70;1.00
23783;DHT22;12071;50.850;4.446;2023-11-19T05:56:51;12.70;1.00
23783;DHT22;12071;50.850;4.446;2023-11-19T05:59:19;12.60;1.00
23783;DHT22;12071;50.850;4.446;2023-11-19T06:01:45;12.60;1.00
23783;DHT22;12071;50.850;4.446;2023-11-19T06:04:11;12.60;1.00
23783;DHT22;12071;50.850;4.446;2023-11-19T06:06:37;12.50;1.00
23783;DHT22;12071;50.850;4.446;2023-11-19T06:09:03;12.70;1.00
23783;DHT22;12071;50.850;4.446;2023-11-19T06:11:30;12.70;1.00
23783;DHT22;12071;50.850;4.446;2023-11-19T06:13:55;12.60;1.00
23783;DHT22;12071;50.850;4.446;2023-11-19T06:16:21;12.60;1.00
23783;DHT22;12071;50.850;4.446;2023-11-19T06:18:47;12.60;1.00
23783;DHT22;12071;50.850;4.446;2023-11-19T06:21:13;12.50;1.00
23783;DHT22;12071;50.850;4.446;2023-11-19T06:23:38;12.60;1.00
23783;DHT22;12071;50.850;4.446;2023-11-19T06:26:04;12.50;1.00
23783;DHT22;12071;50.850;4.446;2023-11-19T06:28:31;12.50;1.00
23783;DHT22;12071;50.850;4.446;2023-11-19T06:30:56;12.30;1.00
23783;DHT22;12071;50.850;4.446;2023-11-19T06:33:24;12.40;1.00
23783;DHT22;12071;50.850;4.446;2023-11-19T06:35:51;12.30;1.00
23783;DHT22;12071;50.850;4.446;2023-11-19T06:38:17;12.30;1.00
23783;DHT22;12071;50.850;4.446;2023-11-19T06:40:42;12.30;1.00
23783;DHT22;12071;50.850;4.446;2023-11-19T06:43:08;12.50;1.00
23783;DHT22;12071;50.850;4.446;2023-11-19T06:45:34;12.30;1.00
23783;DHT22;12071;50.850;4.446;2023-11-19T06:48:03;12.30;1.00
23783;DHT22;12071;50.850;4.446;2023-11-19T06:50:30;12.30;1.00
23783;DHT22;12071;50.850;4.446;2023-11-19T06:52:56;12.30;1.00
23783;DHT22;12071;50.850;4.446;2023-11-19T06:55:22;12.30;1.00
23783;DHT22;12071;50.850;4.446;2023-11-19T06:57:47;12.20;1.00
23783;DHT22;12071;50.850;4.446;2023-11-19T07:00:14;12.30;1.00
23783;DHT22;12071;50.850;4.446;2023-11-19T07:02:40;12.20;1.00
23783;DHT22;12071;50.850;4.446;2023-11-19T07:05:06;12.10;1.00
23783;DHT22;12071;50.850;4.446;2023-11-19T07:07:32;12.10;1.00
23783;DHT22;12071;50.850;4.446;2023-11-19T07:09:58;12.20;1.00
23783;DHT22;12071;50.850;4.446;2023-11-19T07:12:24;12.20;1.00
23783;DHT22;12071;50.850;4.446;2023-11-19T07:14:52;12.10;1.00
23783;DHT22;12071;50.850;4.446;2023-11-19T07:17:18;12.20;1.00
23783;DHT22;12071;50.850;4.446;2023-11-19T07:19:43;12.30;1.00
23783;DHT22;12071;50.850;4.446;2023-11-19T07:22:09;12.30;1.00
23783;DHT22;12071;50.850;4.446;2023-11-19T07:24:39;12.20;1.00
23783;DHT22;12071;50.850;4.446;2023-11-19T07:27:05;12.20;1.00
23783;DHT22;12071;50.850;4.446;2023-11-19T07:29:30;12.20;1.00
23783;DHT22;12071;50.850;4.446;2023-11-19T07:31:57;12.20;1.00
23783;DHT22;12071;50.850;4.446;2023-11-19T07:34:22;12.30;1.00
23783;DHT22;12071;50.850;4.446;2023-11-19T07:36:49;12.30;1.00
23783;DHT22;12071;50.850;4.446;2023-11-19T07:39:14;12.30;1.00
23783;DHT22;12071;50.850;4.446;2023-11-19T07:41:40;12.30;1.00
23783;DHT22;12071;50.850;4.446;2023-11-19T07:44:05;12.20;1.00
23783;DHT22;12071;50.850;4.446;2023-11-19T07:46:32;12.30;1.00
23783;DHT22;12071;50.850;4.446;2023-11-19T07:48:58;12.20;1.00
23783;DHT22;12071;50.850;4.446;2023-11-19T07:51:24;12.20;1.00
23783;DHT22;12071;50.850;4.446;2023-11-19T07:53:49;12.30;1.00
23783;DHT22;12071;50.850;4.446;2023-11-19T07:56:15;12.40;1.00
23783;DHT22;12071;50.850;4.446;2023-11-19T07:58:41;12.30;1.00
23783;DHT22;12071;50.850;4.446;2023-11-19T08:01:07;12.30;1.00
23783;DHT22;12071;50.850;4.446;2023-11-19T08:03:33;12.30;1.00
23783;DHT22;12071;50.850;4.446;2023-11-19T08:06:00;12.40;1.00
23783;DHT22;12071;50.850;4.446;2023-11-19T08:08:26;12.50;1.00
23783;DHT22;12071;50.850;4.446;2023-11-19T08:10:54;12.50;1.00
23783;DHT22;12071;50.850;4.446;2023-11-19T08:13:23;12.40;1.00
23783;DHT22;12071;50.850;4.446;2023-11-19T08:15:49;12.50;1.00
23783;DHT22;12071;50.850;4.446;2023-11-19T08:18:14;12.40;1.00
23783;DHT22;12071;50.850;4.446;2023-11-19T08:20:40;12.40;1.00
23783;DHT22;12071;50.850;4.446;2023-11-19T08:23:06;12.60;1.00
23783;DHT22;12071;50.850;4.446;2023-11-19T08:25:33;12.70;1.00
23783;DHT22;12071;50.850;4.446;2023-11-19T08:28:02;12.70;1.00
23783;DHT22;12071;50.850;4.446;2023-11-19T08:30:29;12.70;1.00
23783;DHT22;12071;50.850;4.446;2023-11-19T08:32:55;12.60;1.00
23783;DHT22;12071;50.850;4.446;2023-11-19T08:35:21;12.60;1.00
23783;DHT22;12071;50.850;4.446;2023-11-19T08:37:47;12.70;1.00
23783;DHT22;12071;50.850;4.446;2023-11-19T08:40:13;12.70;1.00
23783;DHT22;12071;50.850;4.446;2023-11-19T08:42:41;12.70;1.00
23783;DHT22;12071;50.850;4.446;2023-11-19T08:45:08;12.70;1.00
23783;DHT22;12071;50.850;4.446;2023-11-19T08:47:36;12.80;1.00
23783;DHT22;12071;50.850;4.446;2023-11-19T08:50:02;12.80;1.00
23783;DHT22;12071;50.850;4.446;2023-11-19T08:52:30;12.70;1.00
23783;DHT22;12071;50.850;4.446;2023-11-19T08:54:55;12.50;1.00
23783;DHT22;12071;50.850;4.446;2023-11-19T08:57:22;12.50;1.00
23783;DHT22;12071;50.850;4.446;2023-11-19T08:59:48;12.50;1.00
23783;DHT22;12071;50.850;4.446;2023-11-19T09:02:13;12.50;1.00
23783;DHT22;12071;50.850;4.446;2023-11-19T09:04:39;12.60;1.00
23783;DHT22;12071;50.850;4.446;2023-11-19T09:07:04;12.50;1.00
23783;DHT22;12071;50.850;4.446;2023-11-19T09:09:30;12.60;1.00
23783;DHT22;12071;50.850;4.446;2023-11-19T09:11:56;12.60;1.00
23783;DHT22;12071;50.850;4.446;2023-11-19T09:14:21;12.70;1.00
23783;DHT22;12071;50.850;4.446;2023-11-19T09:16:51;12.70;1.00
23783;DHT22;12071;50.850;4.446;2023-11-19T09:19:18;12.70;1.00
23783;DHT22;12071;50.850;4.446;2023-11-19T09:21:43;12.70;1.00
23783;DHT22;12071;50.850;4.446;2023-11-19T09:24:09;12.80;1.00
23783;DHT22;12071;50.850;4.446;2023-11-19T09:26:35;12.70;1.00
23783;DHT22;12071;50.850;4.446;2023-11-19T09:29:02;12.70;1.00
23783;DHT22;12071;50.850;4.446;2023-11-19T09:31:27;12.80;1.00
23783;DHT22;12071;50.850;4.446;2023-11-19T09:33:53;12.80;1.00
23783;DHT22;12071;50.850;4.446;2023-11-19T09:36:19;12.80;1.00
23783;DHT22;12071;50.850;4.446;2023-11-19T09:38:44;13.00;1.00
23783;DHT22;12071;50.850;4.446;2023-11-19T09:41:10;13.00;1.00
23783;DHT22;12071;50.850;4.446;2023-11-19T09:43:39;13.00;1.00
23783;DHT22;12071;50.850;4.446;2023-11-19T09:46:06;13.00;1.00
23783;DHT22;12071;50.850;4.446;2023-11-19T09:48:36;13.10;1.00
23783;DHT22;12071;50.850;4.446;2023-11-19T09:51:07;13.00;1.00
23783;DHT22;12071;50.850;4.446;2023-11-19T09:53:34;13.10;1.00
23783;DHT22;12071;50.850;4.446;2023-11-19T09:56:02;13.20;1.00
23783;DHT22;12071;50.850;4.446;2023-11-19T09:58:31;13.20;1.00
23783;DHT22;12071;50.850;4.446;2023-11-19T10:00:58;13.30;1.00
23783;DHT22;12071;50.850;4.446;2023-11-19T10:03:26;13.40;1.00
23783;DHT22;12071;50.850;4.446;2023-11-19T10:05:56;13.30;1.00
23783;DHT22;12071;50.850;4.446;2023-11-19T10:08:22;13.30;1.00
23783;DHT22;12071;50.850;4.446;2023-11-19T10:10:48;13.20;1.00
23783;DHT22;12071;50.850;4.446;2023-11-19T10:13:14;13.30;1.00
23783;DHT22;12071;50.850;4.446;2023-11-19T10:15:40;13.50;1.00
23783;DHT22;12071;50.850;4.446;2023-11-19T10:18:06;13.50;1.00
23783;DHT22;12071;50.850;4.446;2023-11-19T10:20:36;13.40;1.00
23783;DHT22;12071;50.850;4.446;2023-11-19T10:23:02;13.50;1.00
23783;DHT22;12071;50.850;4.446;2023-11-19T10:25:29;13.40;1.00
23783;DHT22;12071;50.850;4.446;2023-11-19T10:27:56;13.50;1.00
23783;DHT22;12071;50.850;4.446;2023-11-19T10:30:23;13.70;1.00
23783;DHT22;12071;50.850;4.446;2023-11-19T10:33:10;13.80;99.90
23783;DHT22;12071;50.850;4.446;2023-11-19T10:35:53;13.90;99.90
23783;DHT22;12071;50.850;4.446;2023-11-19T10:38:19;13.90;99.90
23783;DHT22;12071;50.850;4.446;2023-11-19T10:40:46;14.00;99.90
23783;DHT22;12071;50.850;4.446;2023-11-19T10:43:12;14.10;99.90
23783;DHT22;12071;50.850;4.446;2023-11-19T10:45:39;14.00;99.90
23783;DHT22;12071;50.850;4.446;2023-11-19T10:48:05;13.90;99.90
23783;DHT22;12071;50.850;4.446;2023-11-19T10:50:36;13.90;99.90
23783;DHT22;12071;50.850;4.446;2023-11-19T10:53:03;14.00;99.90
23783;DHT22;12071;50.850;4.446;2023-11-19T10:55:31;13.90;99.90
23783;DHT22;12071;50.850;4.446;2023-11-19T10:58:01;13.90;99.90
23783;DHT22;12071;50.850;4.446;2023-11-19T11:00:47;13.90;99.90
23783;DHT22;12071;50.850;4.446;2023-11-19T11:03:21;14.10;99.90
23783;DHT22;12071;50.850;4.446;2023-11-19T11:05:51;14.10;99.90
23783;DHT22;12071;50.850;4.446;2023-11-19T11:08:18;14.00;99.90
23783;DHT22;12071;50.850;4.446;2023-11-19T11:10:54;14.00;99.90
23783;DHT22;12071;50.850;4.446;2023-11-19T11:13:22;14.10;99.90
23783;DHT22;12071;50.850;4.446;2023-11-19T11:15:50;14.20;99.90
23783;DHT22;12071;50.850;4.446;2023-11-19T11:18:17;14.10;99.90
23783;DHT22;12071;50.850;4.446;2023-11-19T11:20:47;14.00;99.90
23783;DHT22;12071;50.850;4.446;2023-11-19T11:28:56;13.70;99.90
23783;DHT22;12071;50.850;4.446;2023-11-19T11:31:45;13.70;99.90
23783;DHT22;12071;50.850;4.446;2023-11-19T11:39:29;13.70;1.00
23783;DHT22;12071;50.850;4.446;2023-11-19T11:45:06;13.70;1.00
23783;DHT22;12071;50.850;4.446;2023-11-19T11:50:12;14.10;99.90
23783;DHT22;12071;50.850;4.446;2023-11-19T11:55:29;14.10;99.90
23783;DHT22;12071;50.850;4.446;2023-11-19T11:57:59;14.30;99.90
23783;DHT22;12071;50.850;4.446;2023-11-19T12:00:31;14.50;99.90
23783;DHT22;12071;50.850;4.446;2023-11-19T12:02:59;14.80;99.90
23783;DHT22;12071;50.850;4.446;2023-11-19T12:05:25;15.00;99.90
23783;DHT22;12071;50.850;4.446;2023-11-19T12:08:00;14.90;99.90
23783;DHT22;12071;50.850;4.446;2023-11-19T12:10:29;14.80;99.90
23783;DHT22;12071;50.850;4.446;2023-11-19T12:13:01;14.90;99.90
23783;DHT22;12071;50.850;4.446;2023-11-19T12:15:27;14.80;99.90
23783;DHT22;12071;50.850;4.446;2023-11-19T12:17:56;14.70;99.90
23783;DHT22;12071;50.850;4.446;2023-11-19T12:20:24;14.40;99.90
23783;DHT22;12071;50.850;4.446;2023-11-19T12:22:50;14.20;99.90
23783;DHT22;12071;50.850;4.446;2023-11-19T12:25:17;14.10;99.90
23783;DHT22;12071;50.850;4.446;2023-11-19T12:27:51;14.00;99.90
23783;DHT22;12071;50.850;4.446;2023-11-19T12:30:25;13.90;99.90
23783;DHT22;12071;50.850;4.446;2023-11-19T12:32:52;13.60;99.90
23783;DHT22;12071;50.850;4.446;2023-11-19T12:35:19;13.70;99.90
23783;DHT22;12071;50.850;4.446;2023-11-19T12:37:46;13.60;99.90
23783;DHT22;12071;50.850;4.446;2023-11-19T12:40:14;13.60;99.90
23783;DHT22;12071;50.850;4.446;2023-11-19T12:42:41;13.50;99.90
23783;DHT22;12071;50.850;4.446;2023-11-19T12:45:07;13.50;99.90
23783;DHT22;12071;50.850;4.446;2023-11-19T12:47:36;13.50;1.00
23783;DHT22;12071;50.850;4.446;2023-11-19T12:50:02;13.70;99.90
23783;DHT22;12071;50.850;4.446;2023-11-19T12:52:29;13.60;99.90
23783;DHT22;12071;50.850;4.446;2023-11-19T12:54:55;13.60;99.90
23783;DHT22;12071;50.850;4.446;2023-11-19T12:57:35;13.70;99.90
23783;DHT22;12071;50.850;4.446;2023-11-19T13:00:01;13.70;99.90
23783;DHT22;12071;50.850;4.446;2023-11-19T13:03:00;13.60;99.90
23783;DHT22;12071;50.850;4.446;2023-11-19T13:05:31;13.70;99.90
23783;DHT22;12071;50.850;4.446;2023-11-19T13:08:08;13.80;99.90
23783;DHT22;12071;50.850;4.446;2023-11-19T13:10:55;13.70;99.90
23783;DHT22;12071;50.850;4.446;2023-11-19T13:13:21;13.90;99.90
23783;DHT22;12071;50.850;4.446;2023-11-19T13:15:46;13.90;99.90
23783;DHT22;12071;50.850;4.446;2023-11-19T13:18:13;13.90;99.90
23783;DHT22;12071;50.850;4.446;2023-11-19T13:20:39;13.80;99.90
23783;DHT22;12071;50.850;4.446;2023-11-19T13:23:06;13.90;99.90
23783;DHT22;12071;50.850;4.446;2023-11-19T13:25:36;13.90;99.90
23783;DHT22;12071;50.850;4.446;2023-11-19T13:28:01;14.00;99.90
23783;DHT22;12071;50.850;4.446;2023-11-19T13:30:29;14.00;99.90
23783;DHT22;12071;50.850;4.446;2023-11-19T13:32:55;13.90;99.90
23783;DHT22;12071;50.850;4.446;2023-11-19T13:35:21;13.90;99.90
23783;DHT22;12071;50.850;4.446;2023-11-19T13:37:47;13.70;99.90
23783;DHT22;12071;50.850;4.446;2023-11-19T13:40:13;13.60;99.90
23783;DHT22;12071;50.850;4.446;2023-11-19T13:42:41;13.60;1.00
23783;DHT22;12071;50.850;4.446;2023-11-19T13:45:11;13.60;1.00
23783;DHT22;12071;50.850;4.446;2023-11-19T13:47:42;13.70;1.00
23783;DHT22;12071;50.850;4.446;2023-11-19T13:50:10;13.70;1.00
23783;DHT22;12071;50.850;4.446;2023-11-19T13:52:37;13.80;1.00
23783;DHT22;12071;50.850;4.446;2023-11-19T13:55:09;13.90;1.00
23783;DHT22;12071;50.850;4.446;2023-11-19T13:57:36;13.70;99.90
23783;DHT22;12071;50.850;4.446;2023-11-19T14:00:03;13.70;1.00
23783;DHT22;12071;50.850;4.446;2023-11-19T14:02:33;13.60;99.90
23783;DHT22;12071;50.850;4.446;2023-11-19T14:04:59;13.60;99.90
23783;DHT22;12071;50.850;4.446;2023-11-19T14:07:25;13.60;1.00
23783;DHT22;12071;50.850;4.446;2023-11-19T14:09:51;13.60;1.00
23783;DHT22;12071;50.850;4.446;2023-11-19T14:12:16;13.40;1.00
23783;DHT22;12071;50.850;4.446;2023-11-19T14:14:43;13.30;1.00
23783;DHT22;12071;50.850;4.446;2023-11-19T14:17:09;13.40;1.00
23783;DHT22;12071;50.850;4.446;2023-11-19T14:19:36;13.50;1.00
23783;DHT22;12071;50.850;4.446;2023-11-19T14:22:03;13.60;1.00
23783;DHT22;12071;50.850;4.446;2023-11-19T14:24:29;13.50;1.00
23783;DHT22;12071;50.850;4.446;2023-11-19T14:26:55;13.50;1.00
23783;DHT22;12071;50.850;4.446;2023-11-19T14:29:23;13.50;1.00
23783;DHT22;12071;50.850;4.446;2023-11-19T14:31:49;13.40;1.00
23783;DHT22;12071;50.850;4.446;2023-11-19T14:34:14;13.40;1.00
23783;DHT22;12071;50.850;4.446;2023-11-19T14:36:41;13.40;1.00
23783;DHT22;12071;50.850;4.446;2023-11-19T14:39:07;13.20;1.00
23783;DHT22;12071;50.850;4.446;2023-11-19T14:41:32;13.00;1.00
23783;DHT22;12071;50.850;4.446;2023-11-19T14:43:58;12.90;1.00
23783;DHT22;12071;50.850;4.446;2023-11-19T14:46:23;12.90;1.00
23783;DHT22;12071;50.850;4.446;2023-11-19T14:48:49;12.90;1.00
23783;DHT22;12071;50.850;4.446;2023-11-19T14:51:15;12.90;1.00
23783;DHT22;12071;50.850;4.446;2023-11-19T14:53:40;12.90;1.00
23783;DHT22;12071;50.850;4.446;2023-11-19T14:56:10;13.00;1.00
23783;DHT22;12071;50.850;4.446;2023-11-19T14:58:36;13.00;1.00
23783;DHT22;12071;50.850;4.446;2023-11-19T15:01:01;13.10;1.00
23783;DHT22;12071;50.850;4.446;2023-11-19T15:03:30;13.10;1.00
23783;DHT22;12071;50.850;4.446;2023-11-19T15:05:56;13.20;1.00
23783;DHT22;12071;50.850;4.446;2023-11-19T15:08:22;13.00;1.00
23783;DHT22;12071;50.850;4.446;2023-11-19T15:10:48;13.10;1.00
23783;DHT22;12071;50.850;4.446;2023-11-19T15:13:13;13.10;1.00
23783;DHT22;12071;50.850;4.446;2023-11-19T15:15:39;13.00;1.00
23783;DHT22;12071;50.850;4.446;2023-11-19T15:18:05;13.10;1.00
23783;DHT22;12071;50.850;4.446;2023-11-19T15:20:31;13.20;1.00
23783;DHT22;12071;50.850;4.446;2023-11-19T15:22:57;13.30;1.00
23783;DHT22;12071;50.850;4.446;2023-11-19T15:25:23;13.30;1.00
23783;DHT22;12071;50.850;4.446;2023-11-19T15:27:49;13.30;1.00
23783;DHT22;12071;50.850;4.446;2023-11-19T15:30:15;13.30;1.00
23783;DHT22;12071;50.850;4.446;2023-11-19T15:32:42;13.20;1.00
23783;DHT22;12071;50.850;4.446;2023-11-19T15:35:09;13.20;1.00
23783;DHT22;12071;50.850;4.446;2023-11-19T15:37:35;13.20;1.00
23783;DHT22;12071;50.850;4.446;2023-11-19T15:40:01;13.30;1.00
23783;DHT22;12071;50.850;4.446;2023-11-19T15:42:29;13.40;99.90
23783;DHT22;12071;50.850;4.446;2023-11-19T15:44:55;13.40;99.90
23783;DHT22;12071;50.850;4.446;2023-11-19T15:47:21;13.30;99.90
23783;DHT22;12071;50.850;4.446;2023-11-19T15:49:47;13.40;99.90
23783;DHT22;12071;50.850;4.446;2023-11-19T15:52:14;13.20;99.90
23783;DHT22;12071;50.850;4.446;2023-11-19T15:54:41;13.20;99.90
23783;DHT22;12071;50.850;4.446;2023-11-19T15:57:07;13.10;99.90
23783;DHT22;12071;50.850;4.446;2023-11-19T15:59:33;13.30;99.90